sensor_id;sensor_type;location;lat;lon;timestamp;P1;P2;P0
73861;PMS5003;63459;51.456;-0.916;2023-04-01T00:02:25;5;4;
73861;PMS5003;63459;51.456;-0.916;2023-04-01T00:04:50;3;2;
73861;PMS5003;63459;51.456;-0.916;2023-04-01T00:07:15;4;4;
73861;PMS5003;63459;51.456;-0.916;2023-04-01T00:09:41;3;3;
73861;PMS5003;63459;51.456;-0.916;2023-04-01T00:12:06;4;4;
73861;PMS5003;63459;51.456;-0.916;2023-04-01T00:14:32;2;2;
73861;PMS5003;63459;51.456;-0.916;2023-04-01T00:16:56;5;4;
73861;PMS5003;63459;51.456;-0.916;2023-04-01T00:19:22;3;3;
73861;PMS5003;63459;51.456;-0.916;2023-04-01T00:21:47;4;4;
73861;PMS5003;63459;51.456;-0.916;2023-04-01T00:26:38;3;3;
73861;PMS5003;63459;51.456;-0.916;2023-04-01T00:29:03;3;3;
73861;PMS5003;63459;51.456;-0.916;2023-04-01T00:31:28;3;3;
73861;PMS5003;63459;51.456;-0.916;2023-04-01T00:33:53;3;3;
73861;PMS5003;63459;51.456;-0.916;2023-04-01T00:36:20;5;3;
73861;PMS5003;63459;51.456;-0.916;2023-04-01T00:38:44;4;4;
73861;PMS5003;63459;51.456;-0.916;2023-04-01T00:41:11;3;3;
73861;PMS5003;63459;51.456;-0.916;2023-04-01T00:43:35;4;3;
73861;PMS5003;63459;51.456;-0.916;2023-04-01T00:46:01;3;3;
73861;PMS5003;63459;51.456;-0.916;2023-04-01T00:48:27;6;6;
73861;PMS5003;63459;51.456;-0.916;2023-04-01T00:50:53;4;4;
73861;PMS5003;63459;51.456;-0.916;2023-04-01T00:53:17;4;4;
73861;PMS5003;63459;51.456;-0.916;2023-04-01T00:55:49;3;3;
73861;PMS5003;63459;51.456;-0.916;2023-04-01T00:58:08;3;3;
73861;PMS5003;63459;51.456;-0.916;2023-04-01T01:00:33;4;4;
73861;PMS5003;63459;51.456;-0.916;2023-04-01T01:03:00;4;4;
73861;PMS5003;63459;51.456;-0.916;2023-04-01T01:07:51;4;3;
73861;PMS5003;63459;51.456;-0.916;2023-04-01T01:10:15;5;4;
73861;PMS5003;63459;51.456;-0.916;2023-04-01T01:12:41;3;3;
73861;PMS5003;63459;51.456;-0.916;2023-04-01T01:15:07;3;3;
73861;PMS5003;63459;51.456;-0.916;2023-04-01T01:17:33;3;3;
73861;PMS5003;63459;51.456;-0.916;2023-04-01T01:22:24;5;4;
73861;PMS5003;63459;51.456;-0.916;2023-04-01T01:24:51;3;3;
73861;PMS5003;63459;51.456;-0.916;2023-04-01T01:27:11;3;3;
73861;PMS5003;63459;51.456;-0.916;2023-04-01T01:32:03;1;1;
73861;PMS5003;63459;51.456;-0.916;2023-04-01T01:36:53;1;1;
73861;PMS5003;63459;51.456;-0.916;2023-04-01T01:39:18;2;2;
73861;PMS5003;63459;51.456;-0.916;2023-04-01T01:41:43;2;2;
73861;PMS5003;63459;51.456;-0.916;2023-04-01T01:44:09;2;2;
73861;PMS5003;63459;51.456;-0.916;2023-04-01T01:46:34;1;1;
73861;PMS5003;63459;51.456;-0.916;2023-04-01T01:48:59;2;2;
73861;PMS5003;63459;51.456;-0.916;2023-04-01T01:51:25;1;1;
73861;PMS5003;63459;51.456;-0.916;2023-04-01T01:53:51;2;1;
73861;PMS5003;63459;51.456;-0.916;2023-04-01T01:56:16;2;2;
73861;PMS5003;63459;51.456;-0.916;2023-04-01T01:58:42;2;2;
73861;PMS5003;63459;51.456;-0.916;2023-04-01T02:03:33;3;2;
73861;PMS5003;63459;51.456;-0.916;2023-04-01T02:08:23;1;1;
73861;PMS5003;63459;51.456;-0.916;2023-04-01T02:10:49;2;2;
73861;PMS5003;63459;51.456;-0.916;2023-04-01T02:13:14;0;0;
73861;PMS5003;63459;51.456;-0.916;2023-04-01T02:15:40;1;1;
73861;PMS5003;63459;51.456;-0.916;2023-04-01T02:18:03;1;1;
73861;PMS5003;63459;51.456;-0.916;2023-04-01T02:20:29;0;0;
73861;PMS5003;63459;51.456;-0.916;2023-04-01T02:22:55;2;1;
73861;PMS5003;63459;51.456;-0.916;2023-04-01T02:37:27;1;1;
73861;PMS5003;63459;51.456;-0.916;2023-04-01T02:39:52;1;1;
73861;PMS5003;63459;51.456;-0.916;2023-04-01T02:44:43;1;1;
73861;PMS5003;63459;51.456;-0.916;2023-04-01T02:47:09;1;1;
73861;PMS5003;63459;51.456;-0.916;2023-04-01T02:49:34;0;0;
73861;PMS5003;63459;51.456;-0.916;2023-04-01T02:51:59;1;1;
73861;PMS5003;63459;51.456;-0.916;2023-04-01T02:54:25;1;1;
73861;PMS5003;63459;51.456;-0.916;2023-04-01T02:56:50;1;1;
73861;PMS5003;63459;51.456;-0.916;2023-04-01T02:59:15;1;1;
73861;PMS5003;63459;51.456;-0.916;2023-04-01T03:01:40;1;1;
73861;PMS5003;63459;51.456;-0.916;2023-04-01T03:04:06;1;1;
73861;PMS5003;63459;51.456;-0.916;2023-04-01T03:06:32;3;3;
73861;PMS5003;63459;51.456;-0.916;2023-04-01T03:08:57;0;0;
73861;PMS5003;63459;51.456;-0.916;2023-04-01T03:11:23;1;1;
73861;PMS5003;63459;51.456;-0.916;2023-04-01T03:13:49;0;0;
73861;PMS5003;63459;51.456;-0.916;2023-04-01T03:16:14;3;2;
73861;PMS5003;63459;51.456;-0.916;2023-04-01T03:18:39;0;0;
73861;PMS5003;63459;51.456;-0.916;2023-04-01T03:23:30;0;0;
73861;PMS5003;63459;51.456;-0.916;2023-04-01T03:25:55;1;1;
73861;PMS5003;63459;51.456;-0.916;2023-04-01T03:28:20;0;0;
73861;PMS5003;63459;51.456;-0.916;2023-04-01T03:30:46;0;0;
73861;PMS5003;63459;51.456;-0.916;2023-04-01T03:33:11;1;1;
73861;PMS5003;63459;51.456;-0.916;2023-04-01T03:35:37;1;0;
73861;PMS5003;63459;51.456;-0.916;2023-04-01T03:38:02;1;1;
73861;PMS5003;63459;51.456;-0.916;2023-04-01T03:40:27;1;1;
73861;PMS5003;63459;51.456;-0.916;2023-04-01T03:42:52;1;1;
73861;PMS5003;63459;51.456;-0.916;2023-04-01T03:45:18;1;1;
73861;PMS5003;63459;51.456;-0.916;2023-04-01T03:50:13;1;1;
73861;PMS5003;63459;51.456;-0.916;2023-04-01T03:52:33;2;2;
73861;PMS5003;63459;51.456;-0.916;2023-04-01T03:54:58;2;2;
73861;PMS5003;63459;51.456;-0.916;2023-04-01T03:57:24;3;3;
73861;PMS5003;63459;51.456;-0.916;2023-04-01T03:59:49;2;2;
73861;PMS5003;63459;51.456;-0.916;2023-04-01T04:02:19;3;3;
73861;PMS5003;63459;51.456;-0.916;2023-04-01T04:07:05;1;1;
73861;PMS5003;63459;51.456;-0.916;2023-04-01T04:09:30;1;1;
73861;PMS5003;63459;51.456;-0.916;2023-04-01T04:11:55;3;3;
73861;PMS5003;63459;51.456;-0.916;2023-04-01T04:16:46;4;4;
73861;PMS5003;63459;51.456;-0.916;2023-04-01T04:21:37;5;5;
73861;PMS5003;63459;51.456;-0.916;2023-04-01T04:24:03;6;6;
73861;PMS5003;63459;51.456;-0.916;2023-04-01T04:26:28;6;6;
73861;PMS5003;63459;51.456;-0.916;2023-04-01T04:28:54;10;10;
73861;PMS5003;63459;51.456;-0.916;2023-04-01T04:31:19;7;6;
73861;PMS5003;63459;51.456;-0.916;2023-04-01T04:36:09;5;5;
73861;PMS5003;63459;51.456;-0.916;2023-04-01T04:38:35;5;5;
73861;PMS5003;63459;51.456;-0.916;2023-04-01T04:41:00;6;6;
73861;PMS5003;63459;51.456;-0.916;2023-04-01T04:43:25;8;7;
73861;PMS5003;63459;51.456;-0.916;2023-04-01T04:45:51;8;7;
73861;PMS5003;63459;51.456;-0.916;2023-04-01T04:48:16;6;6;
73861;PMS5003;63459;51.456;-0.916;2023-04-01T04:50:41;7;7;
73861;PMS5003;63459;51.456;-0.916;2023-04-01T04:53:06;4;4;
73861;PMS5003;63459;51.456;-0.916;2023-04-01T04:57:57;6;6;
73861;PMS5003;63459;51.456;-0.916;2023-04-01T05:02:48;5;4;
73861;PMS5003;63459;51.456;-0.916;2023-04-01T05:05:13;6;6;
73861;PMS5003;63459;51.456;-0.916;2023-04-01T05:07:38;6;6;
73861;PMS5003;63459;51.456;-0.916;2023-04-01T05:10:03;5;5;
73861;PMS5003;63459;51.456;-0.916;2023-04-01T05:12:28;6;6;
73861;PMS5003;63459;51.456;-0.916;2023-04-01T05:17:19;3;3;
73861;PMS5003;63459;51.456;-0.916;2023-04-01T05:19:44;8;8;
73861;PMS5003;63459;51.456;-0.916;2023-04-01T05:22:09;7;6;
73861;PMS5003;63459;51.456;-0.916;2023-04-01T05:24:35;7;7;
73861;PMS5003;63459;51.456;-0.916;2023-04-01T05:27:00;6;6;
73861;PMS5003;63459;51.456;-0.916;2023-04-01T05:29:25;9;9;
73861;PMS5003;63459;51.456;-0.916;2023-04-01T05:31:50;9;9;
73861;PMS5003;63459;51.456;-0.916;2023-04-01T05:34:16;6;6;
73861;PMS5003;63459;51.456;-0.916;2023-04-01T05:36:42;6;6;
73861;PMS5003;63459;51.456;-0.916;2023-04-01T05:41:34;11;10;
73861;PMS5003;63459;51.456;-0.916;2023-04-01T05:43:57;9;9;
73861;PMS5003;63459;51.456;-0.916;2023-04-01T05:46:26;9;9;
73861;PMS5003;63459;51.456;-0.916;2023-04-01T05:48:49;9;9;
73861;PMS5003;63459;51.456;-0.916;2023-04-01T05:51:14;8;8;
73861;PMS5003;63459;51.456;-0.916;2023-04-01T05:53:39;8;7;
73861;PMS5003;63459;51.456;-0.916;2023-04-01T05:56:05;6;6;
73861;PMS5003;63459;51.456;-0.916;2023-04-01T05:58:30;6;6;
73861;PMS5003;63459;51.456;-0.916;2023-04-01T06:00:59;4;4;
73861;PMS5003;63459;51.456;-0.916;2023-04-01T06:03:21;3;3;
73861;PMS5003;63459;51.456;-0.916;2023-04-01T06:05:47;5;4;
73861;PMS5003;63459;51.456;-0.916;2023-04-01T06:08:13;4;3;
73861;PMS5003;63459;51.456;-0.916;2023-04-01T06:10:40;4;4;
73861;PMS5003;63459;51.456;-0.916;2023-04-01T06:13:03;5;4;
73861;PMS5003;63459;51.456;-0.916;2023-04-01T06:15:32;6;6;
73861;PMS5003;63459;51.456;-0.916;2023-04-01T06:17:58;5;5;
73861;PMS5003;63459;51.456;-0.916;2023-04-01T06:20:20;4;4;
73861;PMS5003;63459;51.456;-0.916;2023-04-01T06:27:39;4;4;
73861;PMS5003;63459;51.456;-0.916;2023-04-01T06:30:02;4;4;
73861;PMS5003;63459;51.456;-0.916;2023-04-01T06:32:35;5;5;
73861;PMS5003;63459;51.456;-0.916;2023-04-01T06:34:57;4;3;
73861;PMS5003;63459;51.456;-0.916;2023-04-01T06:37:20;4;4;
73861;PMS5003;63459;51.456;-0.916;2023-04-01T06:42:10;9;8;
73861;PMS5003;63459;51.456;-0.916;2023-04-01T06:44:33;6;6;
73861;PMS5003;63459;51.456;-0.916;2023-04-01T06:46:58;8;8;
73861;PMS5003;63459;51.456;-0.916;2023-04-01T06:49:26;7;7;
73861;PMS5003;63459;51.456;-0.916;2023-04-01T06:51:47;9;9;
73861;PMS5003;63459;51.456;-0.916;2023-04-01T06:54:14;7;7;
73861;PMS5003;63459;51.456;-0.916;2023-04-01T06:56:38;8;7;
73861;PMS5003;63459;51.456;-0.916;2023-04-01T06:59:04;7;6;
73861;PMS5003;63459;51.456;-0.916;2023-04-01T07:01:29;10;9;
73861;PMS5003;63459;51.456;-0.916;2023-04-01T07:03:54;9;9;
73861;PMS5003;63459;51.456;-0.916;2023-04-01T07:06:20;10;10;
73861;PMS5003;63459;51.456;-0.916;2023-04-01T07:08:44;10;10;
73861;PMS5003;63459;51.456;-0.916;2023-04-01T07:11:09;10;9;
73861;PMS5003;63459;51.456;-0.916;2023-04-01T07:16:03;11;11;
73861;PMS5003;63459;51.456;-0.916;2023-04-01T07:20:50;7;6;
73861;PMS5003;63459;51.456;-0.916;2023-04-01T07:23:16;7;7;
73861;PMS5003;63459;51.456;-0.916;2023-04-01T07:25:42;6;6;
73861;PMS5003;63459;51.456;-0.916;2023-04-01T07:28:10;6;6;
73861;PMS5003;63459;51.456;-0.916;2023-04-01T07:30:33;5;5;
73861;PMS5003;63459;51.456;-0.916;2023-04-01T07:32:58;6;6;
73861;PMS5003;63459;51.456;-0.916;2023-04-01T07:35:24;5;5;
73861;PMS5003;63459;51.456;-0.916;2023-04-01T07:37:52;4;4;
73861;PMS5003;63459;51.456;-0.916;2023-04-01T07:40:17;7;6;
73861;PMS5003;63459;51.456;-0.916;2023-04-01T07:42:41;6;6;
73861;PMS5003;63459;51.456;-0.916;2023-04-01T07:45:05;5;5;
73861;PMS5003;63459;51.456;-0.916;2023-04-01T07:47:37;7;7;
73861;PMS5003;63459;51.456;-0.916;2023-04-01T07:52:20;7;7;
73861;PMS5003;63459;51.456;-0.916;2023-04-01T07:54:46;5;4;
73861;PMS5003;63459;51.456;-0.916;2023-04-01T07:57:11;7;7;
73861;PMS5003;63459;51.456;-0.916;2023-04-01T07:59:37;6;5;
73861;PMS5003;63459;51.456;-0.916;2023-04-01T08:02:03;5;5;
73861;PMS5003;63459;51.456;-0.916;2023-04-01T08:04:34;5;5;
73861;PMS5003;63459;51.456;-0.916;2023-04-01T08:06:52;4;4;
73861;PMS5003;63459;51.456;-0.916;2023-04-01T08:09:19;5;5;
73861;PMS5003;63459;51.456;-0.916;2023-04-01T08:11:46;7;6;
73861;PMS5003;63459;51.456;-0.916;2023-04-01T08:14:08;5;5;
73861;PMS5003;63459;51.456;-0.916;2023-04-01T08:16:34;4;4;
73861;PMS5003;63459;51.456;-0.916;2023-04-01T08:18:59;7;7;
73861;PMS5003;63459;51.456;-0.916;2023-04-01T08:21:25;9;9;
73861;PMS5003;63459;51.456;-0.916;2023-04-01T08:23:51;5;5;
73861;PMS5003;63459;51.456;-0.916;2023-04-01T08:28:46;5;5;
73861;PMS5003;63459;51.456;-0.916;2023-04-01T08:31:05;7;6;
73861;PMS5003;63459;51.456;-0.916;2023-04-01T08:33:31;6;6;
73861;PMS5003;63459;51.456;-0.916;2023-04-01T08:38:23;6;6;
73861;PMS5003;63459;51.456;-0.916;2023-04-01T08:43:12;6;6;
73861;PMS5003;63459;51.456;-0.916;2023-04-01T08:45:41;6;6;
73861;PMS5003;63459;51.456;-0.916;2023-04-01T08:50:33;5;5;
73861;PMS5003;63459;51.456;-0.916;2023-04-01T08:52:57;5;5;
73861;PMS5003;63459;51.456;-0.916;2023-04-01T08:57:48;8;7;
73861;PMS5003;63459;51.456;-0.916;2023-04-01T09:00:13;6;6;
73861;PMS5003;63459;51.456;-0.916;2023-04-01T09:02:41;6;6;
73861;PMS5003;63459;51.456;-0.916;2023-04-01T09:05:04;5;5;
73861;PMS5003;63459;51.456;-0.916;2023-04-01T09:07:29;7;7;
73861;PMS5003;63459;51.456;-0.916;2023-04-01T09:12:19;6;6;
73861;PMS5003;63459;51.456;-0.916;2023-04-01T09:14:48;5;5;
73861;PMS5003;63459;51.456;-0.916;2023-04-01T09:19:36;4;4;
73861;PMS5003;63459;51.456;-0.916;2023-04-01T09:26:53;6;6;
73861;PMS5003;63459;51.456;-0.916;2023-04-01T09:29:18;5;5;
73861;PMS5003;63459;51.456;-0.916;2023-04-01T09:31:44;3;3;
73861;PMS5003;63459;51.456;-0.916;2023-04-01T09:36:34;2;2;
73861;PMS5003;63459;51.456;-0.916;2023-04-01T09:38:56;2;2;
73861;PMS5003;63459;51.456;-0.916;2023-04-01T09:41:22;3;3;
73861;PMS5003;63459;51.456;-0.916;2023-04-01T09:43:50;3;3;
73861;PMS5003;63459;51.456;-0.916;2023-04-01T09:46:14;4;4;
73861;PMS5003;63459;51.456;-0.916;2023-04-01T09:48:42;1;1;
73861;PMS5003;63459;51.456;-0.916;2023-04-01T09:51:03;3;3;
73861;PMS5003;63459;51.456;-0.916;2023-04-01T09:55:57;5;4;
73861;PMS5003;63459;51.456;-0.916;2023-04-01T10:00:48;4;4;
73861;PMS5003;63459;51.456;-0.916;2023-04-01T10:05:39;6;5;
73861;PMS5003;63459;51.456;-0.916;2023-04-01T10:17:46;3;2;
73861;PMS5003;63459;51.456;-0.916;2023-04-01T10:20:09;4;3;
73861;PMS5003;63459;51.456;-0.916;2023-04-01T10:25:05;5;5;
73861;PMS5003;63459;51.456;-0.916;2023-04-01T10:27:30;7;7;
73861;PMS5003;63459;51.456;-0.916;2023-04-01T10:34:44;6;6;
73861;PMS5003;63459;51.456;-0.916;2023-04-01T10:37:06;6;6;
73861;PMS5003;63459;51.456;-0.916;2023-04-01T10:39:34;7;5;
73861;PMS5003;63459;51.456;-0.916;2023-04-01T11:01:22;6;5;
73861;PMS5003;63459;51.456;-0.916;2023-04-01T11:13:33;6;5;
73861;PMS5003;63459;51.456;-0.916;2023-04-01T11:23:11;5;5;
73861;PMS5003;63459;51.456;-0.916;2023-04-01T11:25:40;5;5;
73861;PMS5003;63459;51.456;-0.916;2023-04-01T11:32:52;4;4;
73861;PMS5003;63459;51.456;-0.916;2023-04-01T11:37:41;17;16;
73861;PMS5003;63459;51.456;-0.916;2023-04-01T11:40:10;17;16;
73861;PMS5003;63459;51.456;-0.916;2023-04-01T11:42:34;10;9;
73861;PMS5003;63459;51.456;-0.916;2023-04-01T11:44:58;9;9;
73861;PMS5003;63459;51.456;-0.916;2023-04-01T11:47:40;8;8;
73861;PMS5003;63459;51.456;-0.916;2023-04-01T11:49:54;7;6;
73861;PMS5003;63459;51.456;-0.916;2023-04-01T11:52:17;7;6;
73861;PMS5003;63459;51.456;-0.916;2023-04-01T11:54:43;6;6;
73861;PMS5003;63459;51.456;-0.916;2023-04-01T11:57:09;6;6;
73861;PMS5003;63459;51.456;-0.916;2023-04-01T11:59:33;5;5;
73861;PMS5003;63459;51.456;-0.916;2023-04-01T12:01:57;10;9;
73861;PMS5003;63459;51.456;-0.916;2023-04-01T12:06:48;7;7;
73861;PMS5003;63459;51.456;-0.916;2023-04-01T12:09:12;4;4;
73861;PMS5003;63459;51.456;-0.916;2023-04-01T12:11:39;5;5;
73861;PMS5003;63459;51.456;-0.916;2023-04-01T12:14:09;5;5;
73861;PMS5003;63459;51.456;-0.916;2023-04-01T12:21:22;5;4;
73861;PMS5003;63459;51.456;-0.916;2023-04-01T12:26:15;6;6;
73861;PMS5003;63459;51.456;-0.916;2023-04-01T12:28:38;6;5;
73861;PMS5003;63459;51.456;-0.916;2023-04-01T12:31:02;5;4;
73861;PMS5003;63459;51.456;-0.916;2023-04-01T12:35:54;7;7;
73861;PMS5003;63459;51.456;-0.916;2023-04-01T12:38:20;5;5;
73861;PMS5003;63459;51.456;-0.916;2023-04-01T12:40:46;4;4;
73861;PMS5003;63459;51.456;-0.916;2023-04-01T12:43:14;4;4;
73861;PMS5003;63459;51.456;-0.916;2023-04-01T12:45:38;4;4;
73861;PMS5003;63459;51.456;-0.916;2023-04-01T12:50:26;6;6;
73861;PMS5003;63459;51.456;-0.916;2023-04-01T12:52:52;3;3;
73861;PMS5003;63459;51.456;-0.916;2023-04-01T12:55:19;4;3;
73861;PMS5003;63459;51.456;-0.916;2023-04-01T13:02:34;5;4;
73861;PMS5003;63459;51.456;-0.916;2023-04-01T13:07:23;4;3;
73861;PMS5003;63459;51.456;-0.916;2023-04-01T13:09:48;4;3;
73861;PMS5003;63459;51.456;-0.916;2023-04-01T13:12:18;3;3;
73861;PMS5003;63459;51.456;-0.916;2023-04-01T13:17:03;3;3;
73861;PMS5003;63459;51.456;-0.916;2023-04-01T13:19:29;4;4;
73861;PMS5003;63459;51.456;-0.916;2023-04-01T13:21:54;4;3;
73861;PMS5003;63459;51.456;-0.916;2023-04-01T13:26:51;5;4;
73861;PMS5003;63459;51.456;-0.916;2023-04-01T13:29:10;4;3;
73861;PMS5003;63459;51.456;-0.916;2023-04-01T13:31:38;5;4;
73861;PMS5003;63459;51.456;-0.916;2023-04-01T13:34:02;3;3;
73861;PMS5003;63459;51.456;-0.916;2023-04-01T13:36:26;4;3;
73861;PMS5003;63459;51.456;-0.916;2023-04-01T13:38:55;2;2;
73861;PMS5003;63459;51.456;-0.916;2023-04-01T13:41:18;2;2;
73861;PMS5003;63459;51.456;-0.916;2023-04-01T13:43:42;10;9;
73861;PMS5003;63459;51.456;-0.916;2023-04-01T13:48:35;184;133;
73861;PMS5003;63459;51.456;-0.916;2023-04-01T13:51:00;152;121;
73861;PMS5003;63459;51.456;-0.916;2023-04-01T13:53:30;77;59;
73861;PMS5003;63459;51.456;-0.916;2023-04-01T14:00:42;4;4;
73861;PMS5003;63459;51.456;-0.916;2023-04-01T14:05:34;4;4;
73861;PMS5003;63459;51.456;-0.916;2023-04-01T14:07:57;3;2;
73861;PMS5003;63459;51.456;-0.916;2023-04-01T14:10:21;2;2;
73861;PMS5003;63459;51.456;-0.916;2023-04-01T14:12:46;7;7;
73861;PMS5003;63459;51.456;-0.916;2023-04-01T14:17:40;4;4;
73861;PMS5003;63459;51.456;-0.916;2023-04-01T14:22:28;5;5;
73861;PMS5003;63459;51.456;-0.916;2023-04-01T14:24:56;4;4;
73861;PMS5003;63459;51.456;-0.916;2023-04-01T14:29:44;5;5;
73861;PMS5003;63459;51.456;-0.916;2023-04-01T14:32:09;6;6;
73861;PMS5003;63459;51.456;-0.916;2023-04-01T14:34:37;5;5;
73861;PMS5003;63459;51.456;-0.916;2023-04-01T14:37:01;3;3;
73861;PMS5003;63459;51.456;-0.916;2023-04-01T14:41:51;4;4;
73861;PMS5003;63459;51.456;-0.916;2023-04-01T14:49:05;5;5;
73861;PMS5003;63459;51.456;-0.916;2023-04-01T14:51:30;5;5;
73861;PMS5003;63459;51.456;-0.916;2023-04-01T14:53:58;4;4;
73861;PMS5003;63459;51.456;-0.916;2023-04-01T14:58:50;6;6;
73861;PMS5003;63459;51.456;-0.916;2023-04-01T15:01:13;6;5;
73861;PMS5003;63459;51.456;-0.916;2023-04-01T15:03:37;5;5;
73861;PMS5003;63459;51.456;-0.916;2023-04-01T15:08:28;9;8;
73861;PMS5003;63459;51.456;-0.916;2023-04-01T15:10:58;5;5;
73861;PMS5003;63459;51.456;-0.916;2023-04-01T15:13:24;3;3;
73861;PMS5003;63459;51.456;-0.916;2023-04-01T15:15:47;7;7;
73861;PMS5003;63459;51.456;-0.916;2023-04-01T15:18:08;8;8;
73861;PMS5003;63459;51.456;-0.916;2023-04-01T15:23:02;8;6;
73861;PMS5003;63459;51.456;-0.916;2023-04-01T15:25:28;6;6;
73861;PMS5003;63459;51.456;-0.916;2023-04-01T15:27:55;5;4;
73861;PMS5003;63459;51.456;-0.916;2023-04-01T15:30:17;7;6;
73861;PMS5003;63459;51.456;-0.916;2023-04-01T15:32:43;8;8;
73861;PMS5003;63459;51.456;-0.916;2023-04-01T15:35:09;6;6;
73861;PMS5003;63459;51.456;-0.916;2023-04-01T15:37:33;7;7;
73861;PMS5003;63459;51.456;-0.916;2023-04-01T15:40:03;7;6;
73861;PMS5003;63459;51.456;-0.916;2023-04-01T15:44:50;6;5;
73861;PMS5003;63459;51.456;-0.916;2023-04-01T15:52:03;5;5;
73861;PMS5003;63459;51.456;-0.916;2023-04-01T15:56:54;8;7;
73861;PMS5003;63459;51.456;-0.916;2023-04-01T15:59:22;8;7;
73861;PMS5003;63459;51.456;-0.916;2023-04-01T16:01:44;6;6;
73861;PMS5003;63459;51.456;-0.916;2023-04-01T16:06:38;7;6;
73861;PMS5003;63459;51.456;-0.916;2023-04-01T16:09:02;4;4;
73861;PMS5003;63459;51.456;-0.916;2023-04-01T16:11:25;5;4;
73861;PMS5003;63459;51.456;-0.916;2023-04-01T16:13:54;4;4;
73861;PMS5003;63459;51.456;-0.916;2023-04-01T16:16:19;5;5;
73861;PMS5003;63459;51.456;-0.916;2023-04-01T16:21:06;4;4;
73861;PMS5003;63459;51.456;-0.916;2023-04-01T16:23:35;6;6;
73861;PMS5003;63459;51.456;-0.916;2023-04-01T16:25:59;7;6;
73861;PMS5003;63459;51.456;-0.916;2023-04-01T16:28:23;8;7;
73861;PMS5003;63459;51.456;-0.916;2023-04-01T16:30:47;5;5;
73861;PMS5003;63459;51.456;-0.916;2023-04-01T16:33:14;5;3;
73861;PMS5003;63459;51.456;-0.916;2023-04-01T16:35:41;4;4;
73861;PMS5003;63459;51.456;-0.916;2023-04-01T16:38:05;3;3;
73861;PMS5003;63459;51.456;-0.916;2023-04-01T16:42:55;4;3;
73861;PMS5003;63459;51.456;-0.916;2023-04-01T16:45:24;6;6;
73861;PMS5003;63459;51.456;-0.916;2023-04-01T16:47:46;5;5;
73861;PMS5003;63459;51.456;-0.916;2023-04-01T16:50:13;5;5;
73861;PMS5003;63459;51.456;-0.916;2023-04-01T16:52:36;9;9;
73861;PMS5003;63459;51.456;-0.916;2023-04-01T16:55:01;10;10;
73861;PMS5003;63459;51.456;-0.916;2023-04-01T16:57:26;6;5;
73861;PMS5003;63459;51.456;-0.916;2023-04-01T16:59:54;8;8;
73861;PMS5003;63459;51.456;-0.916;2023-04-01T17:02:16;6;6;
73861;PMS5003;63459;51.456;-0.916;2023-04-01T17:04:42;5;4;
73861;PMS5003;63459;51.456;-0.916;2023-04-01T17:07:11;5;5;
73861;PMS5003;63459;51.456;-0.916;2023-04-01T17:09:35;4;4;
73861;PMS5003;63459;51.456;-0.916;2023-04-01T17:11:58;5;5;
73861;PMS5003;63459;51.456;-0.916;2023-04-01T17:14:23;3;3;
73861;PMS5003;63459;51.456;-0.916;2023-04-01T17:16:53;5;4;
73861;PMS5003;63459;51.456;-0.916;2023-04-01T17:19:14;6;6;
73861;PMS5003;63459;51.456;-0.916;2023-04-01T17:24:06;3;3;
73861;PMS5003;63459;51.456;-0.916;2023-04-01T17:26:32;5;5;
73861;PMS5003;63459;51.456;-0.916;2023-04-01T17:31:23;21;20;
73861;PMS5003;63459;51.456;-0.916;2023-04-01T17:33:49;24;24;
73861;PMS5003;63459;51.456;-0.916;2023-04-01T17:36:14;18;17;
73861;PMS5003;63459;51.456;-0.916;2023-04-01T17:38:43;11;11;
73861;PMS5003;63459;51.456;-0.916;2023-04-01T17:41:03;8;8;
73861;PMS5003;63459;51.456;-0.916;2023-04-01T17:43:30;9;9;
73861;PMS5003;63459;51.456;-0.916;2023-04-01T17:45:54;5;5;
73861;PMS5003;63459;51.456;-0.916;2023-04-01T17:48:21;6;5;
73861;PMS5003;63459;51.456;-0.916;2023-04-01T17:50:49;3;3;
73861;PMS5003;63459;51.456;-0.916;2023-04-01T17:58:00;4;4;
73861;PMS5003;63459;51.456;-0.916;2023-04-01T18:00:26;5;5;
73861;PMS5003;63459;51.456;-0.916;2023-04-01T18:02:52;4;4;
73861;PMS5003;63459;51.456;-0.916;2023-04-01T18:07:44;6;4;
73861;PMS5003;63459;51.456;-0.916;2023-04-01T18:12:38;4;4;
73861;PMS5003;63459;51.456;-0.916;2023-04-01T18:17:23;4;4;
73861;PMS5003;63459;51.456;-0.916;2023-04-01T18:19:50;4;4;
73861;PMS5003;63459;51.456;-0.916;2023-04-01T18:22:15;3;3;
73861;PMS5003;63459;51.456;-0.916;2023-04-01T18:24:40;7;7;
73861;PMS5003;63459;51.456;-0.916;2023-04-01T18:27:04;11;11;
73861;PMS5003;63459;51.456;-0.916;2023-04-01T18:29:32;10;10;
73861;PMS5003;63459;51.456;-0.916;2023-04-01T18:31:55;8;8;
73861;PMS5003;63459;51.456;-0.916;2023-04-01T18:34:20;7;7;
73861;PMS5003;63459;51.456;-0.916;2023-04-01T18:36:46;5;5;
73861;PMS5003;63459;51.456;-0.916;2023-04-01T18:39:10;6;6;
73861;PMS5003;63459;51.456;-0.916;2023-04-01T18:41:35;5;5;
73861;PMS5003;63459;51.456;-0.916;2023-04-01T18:44:04;5;5;
73861;PMS5003;63459;51.456;-0.916;2023-04-01T18:46:27;8;6;
73861;PMS5003;63459;51.456;-0.916;2023-04-01T18:48:52;6;6;
73861;PMS5003;63459;51.456;-0.916;2023-04-01T18:51:17;6;6;
73861;PMS5003;63459;51.456;-0.916;2023-04-01T18:53:42;5;5;
73861;PMS5003;63459;51.456;-0.916;2023-04-01T18:56:08;8;6;
73861;PMS5003;63459;51.456;-0.916;2023-04-01T18:58:34;4;4;
73861;PMS5003;63459;51.456;-0.916;2023-04-01T19:03:24;5;5;
73861;PMS5003;63459;51.456;-0.916;2023-04-01T19:05:49;4;4;
73861;PMS5003;63459;51.456;-0.916;2023-04-01T19:08:18;5;4;
73861;PMS5003;63459;51.456;-0.916;2023-04-01T19:10:40;5;5;
73861;PMS5003;63459;51.456;-0.916;2023-04-01T19:13:08;4;4;
73861;PMS5003;63459;51.456;-0.916;2023-04-01T19:18:00;6;6;
73861;PMS5003;63459;51.456;-0.916;2023-04-01T19:20:27;5;4;
73861;PMS5003;63459;51.456;-0.916;2023-04-01T19:22:51;4;4;
73861;PMS5003;63459;51.456;-0.916;2023-04-01T19:25:22;7;7;
73861;PMS5003;63459;51.456;-0.916;2023-04-01T19:27:39;3;3;
73861;PMS5003;63459;51.456;-0.916;2023-04-01T19:30:08;4;4;
73861;PMS5003;63459;51.456;-0.916;2023-04-01T19:32:31;4;4;
73861;PMS5003;63459;51.456;-0.916;2023-04-01T19:34:56;6;5;
73861;PMS5003;63459;51.456;-0.916;2023-04-01T19:37:22;4;4;
73861;PMS5003;63459;51.456;-0.916;2023-04-01T19:39:47;5;5;
73861;PMS5003;63459;51.456;-0.916;2023-04-01T19:42:11;6;6;
73861;PMS5003;63459;51.456;-0.916;2023-04-01T19:44:36;14;13;
73861;PMS5003;63459;51.456;-0.916;2023-04-01T19:47:02;14;14;
73861;PMS5003;63459;51.456;-0.916;2023-04-01T19:49:35;8;8;
73861;PMS5003;63459;51.456;-0.916;2023-04-01T19:51:52;8;8;
73861;PMS5003;63459;51.456;-0.916;2023-04-01T19:54:21;10;10;
73861;PMS5003;63459;51.456;-0.916;2023-04-01T19:59:09;6;6;
73861;PMS5003;63459;51.456;-0.916;2023-04-01T20:01:34;6;6;
73861;PMS5003;63459;51.456;-0.916;2023-04-01T20:04:00;6;6;
73861;PMS5003;63459;51.456;-0.916;2023-04-01T20:06:27;5;5;
73861;PMS5003;63459;51.456;-0.916;2023-04-01T20:08:57;5;5;
73861;PMS5003;63459;51.456;-0.916;2023-04-01T20:11:19;3;3;
73861;PMS5003;63459;51.456;-0.916;2023-04-01T20:13:43;4;4;
73861;PMS5003;63459;51.456;-0.916;2023-04-01T20:16:06;4;4;
73861;PMS5003;63459;51.456;-0.916;2023-04-01T20:20:57;5;4;
73861;PMS5003;63459;51.456;-0.916;2023-04-01T20:23:26;5;5;
73861;PMS5003;63459;51.456;-0.916;2023-04-01T20:28:13;4;4;
73861;PMS5003;63459;51.456;-0.916;2023-04-01T20:30:42;5;5;
73861;PMS5003;63459;51.456;-0.916;2023-04-01T20:33:06;4;3;
73861;PMS5003;63459;51.456;-0.916;2023-04-01T20:35:34;5;4;
73861;PMS5003;63459;51.456;-0.916;2023-04-01T20:42:47;7;7;
73861;PMS5003;63459;51.456;-0.916;2023-04-01T20:45:12;9;9;
73861;PMS5003;63459;51.456;-0.916;2023-04-01T20:47:40;5;5;
73861;PMS5003;63459;51.456;-0.916;2023-04-01T20:49:59;5;5;